sensor_id;sensor_type;location;lat;lon;timestamp;temperature;humidity
18779;DHT22;9518;51.720;14.384;2023-03-01T00:01:02;-6.50;99.90
18779;DHT22;9518;51.720;14.384;2023-03-01T00:03:29;-6.50;99.90
18779;DHT22;9518;51.720;14.384;2023-03-01T00:05:57;-6.60;99.90
18779;DHT22;9518;51.720;14.384;2023-03-01T00:08:24;-6.50;99.90
18779;DHT22;9518;51.720;14.384;2023-03-01T00:11:02;-6.40;99.90
18779;DHT22;9518;51.720;14.384;2023-03-01T00:13:31;-6.40;99.90
18779;DHT22;9518;51.720;14.384;2023-03-01T00:16:01;-6.40;99.90
18779;DHT22;9518;51.720;14.384;2023-03-01T00:18:28;-6.40;99.90
18779;DHT22;9518;51.720;14.384;2023-03-01T00:20:56;-6.30;99.90
18779;DHT22;9518;51.720;14.384;2023-03-01T00:23:24;-6.30;99.90
18779;DHT22;9518;51.720;14.384;2023-03-01T00:25:52;-6.30;99.90
18779;DHT22;9518;51.720;14.384;2023-03-01T00:28:21;-6.30;99.90
18779;DHT22;9518;51.720;14.384;2023-03-01T00:30:48;-6.30;99.90
18779;DHT22;9518;51.720;14.384;2023-03-01T00:33:15;-6.30;99.90
18779;DHT22;9518;51.720;14.384;2023-03-01T00:35:43;-6.40;99.90
18779;DHT22;9518;51.720;14.384;2023-03-01T00:38:10;-6.40;99.90
18779;DHT22;9518;51.720;14.384;2023-03-01T00:40:38;-6.50;99.90
18779;DHT22;9518;51.720;14.384;2023-03-01T00:43:08;-6.50;99.90
18779;DHT22;9518;51.720;14.384;2023-03-01T00:45:37;-6.50;99.90
18779;DHT22;9518;51.720;14.384;2023-03-01T00:48:05;-6.50;99.90
18779;DHT22;9518;51.720;14.384;2023-03-01T00:50:32;-6.50;99.90
18779;DHT22;9518;51.720;14.384;2023-03-01T00:52:59;-6.60;99.90
18779;DHT22;9518;51.720;14.384;2023-03-01T00:55:26;-6.50;99.90
18779;DHT22;9518;51.720;14.384;2023-03-01T00:57:53;-6.50;99.90
18779;DHT22;9518;51.720;14.384;2023-03-01T01:00:21;-6.50;99.90
18779;DHT22;9518;51.720;14.384;2023-03-01T01:02:49;-6.60;99.90
18779;DHT22;9518;51.720;14.384;2023-03-01T01:05:16;-6.60;99.90
18779;DHT22;9518;51.720;14.384;2023-03-01T01:07:48;-6.60;99.90
18779;DHT22;9518;51.720;14.384;2023-03-01T01:10:15;-6.60;99.90
18779;DHT22;9518;51.720;14.384;2023-03-01T01:12:44;-6.70;99.90
18779;DHT22;9518;51.720;14.384;2023-03-01T01:15:12;-6.70;99.90
18779;DHT22;9518;51.720;14.384;2023-03-01T01:17:42;-6.70;99.90
18779;DHT22;9518;51.720;14.384;2023-03-01T01:20:11;-6.70;99.90
18779;DHT22;9518;51.720;14.384;2023-03-01T01:22:39;-6.80;99.90
18779;DHT22;9518;51.720;14.384;2023-03-01T01:25:06;-6.80;99.90
18779;DHT22;9518;51.720;14.384;2023-03-01T01:27:34;-6.90;99.90
18779;DHT22;9518;51.720;14.384;2023-03-01T01:30:01;-6.90;99.90
18779;DHT22;9518;51.720;14.384;2023-03-01T01:32:29;-6.90;99.90
18779;DHT22;9518;51.720;14.384;2023-03-01T01:34:57;-6.90;99.90
18779;DHT22;9518;51.720;14.384;2023-03-01T01:37:25;-7.00;99.90
18779;DHT22;9518;51.720;14.384;2023-03-01T01:39:57;-7.00;99.90
18779;DHT22;9518;51.720;14.384;2023-03-01T01:42:25;-7.00;99.90
18779;DHT22;9518;51.720;14.384;2023-03-01T01:47:55;-7.20;99.90
18779;DHT22;9518;51.720;14.384;2023-03-01T01:50:27;-7.30;99.90
18779;DHT22;9518;51.720;14.384;2023-03-01T01:53:08;-7.40;99.90
18779;DHT22;9518;51.720;14.384;2023-03-01T01:55:37;-7.30;99.90
18779;DHT22;9518;51.720;14.384;2023-03-01T01:58:09;-7.40;99.90
18779;DHT22;9518;51.720;14.384;2023-03-01T02:00:38;-7.30;99.90
18779;DHT22;9518;51.720;14.384;2023-03-01T02:03:09;-7.20;99.90
18779;DHT22;9518;51.720;14.384;2023-03-01T02:05:42;-7.10;99.90
18779;DHT22;9518;51.720;14.384;2023-03-01T02:08:14;-7.00;99.90
18779;DHT22;9518;51.720;14.384;2023-03-01T02:10:43;-6.90;99.90
18779;DHT22;9518;51.720;14.384;2023-03-01T02:13:11;-6.90;99.90
18779;DHT22;9518;51.720;14.384;2023-03-01T02:15:40;-6.90;99.90
18779;DHT22;9518;51.720;14.384;2023-03-01T02:18:12;-6.90;99.90
18779;DHT22;9518;51.720;14.384;2023-03-01T02:20:48;-6.90;99.90
18779;DHT22;9518;51.720;14.384;2023-03-01T02:23:19;-6.90;99.90
18779;DHT22;9518;51.720;14.384;2023-03-01T02:25:54;-6.90;99.90
18779;DHT22;9518;51.720;14.384;2023-03-01T02:28:30;-7.10;99.90
18779;DHT22;9518;51.720;14.384;2023-03-01T02:30:57;-7.20;99.90
18779;DHT22;9518;51.720;14.384;2023-03-01T02:33:43;-7.20;99.90
18779;DHT22;9518;51.720;14.384;2023-03-01T02:36:14;-7.30;99.90
18779;DHT22;9518;51.720;14.384;2023-03-01T02:38:42;-7.20;99.90
18779;DHT22;9518;51.720;14.384;2023-03-01T02:41:12;-7.20;99.90
18779;DHT22;9518;51.720;14.384;2023-03-01T02:43:43;-7.30;99.90
18779;DHT22;9518;51.720;14.384;2023-03-01T02:46:15;-7.40;99.90
18779;DHT22;9518;51.720;14.384;2023-03-01T02:48:45;-7.40;99.90
18779;DHT22;9518;51.720;14.384;2023-03-01T02:51:40;-7.40;99.90
18779;DHT22;9518;51.720;14.384;2023-03-01T02:54:17;-7.50;99.90
18779;DHT22;9518;51.720;14.384;2023-03-01T02:56:49;-7.60;99.90
18779;DHT22;9518;51.720;14.384;2023-03-01T02:59:21;-7.60;99.90
18779;DHT22;9518;51.720;14.384;2023-03-01T03:01:49;-7.50;99.90
18779;DHT22;9518;51.720;14.384;2023-03-01T03:04:18;-7.60;99.90
18779;DHT22;9518;51.720;14.384;2023-03-01T03:06:47;-7.60;99.90
18779;DHT22;9518;51.720;14.384;2023-03-01T03:09:15;-7.70;99.90
18779;DHT22;9518;51.720;14.384;2023-03-01T03:11:44;-7.50;99.90
18779;DHT22;9518;51.720;14.384;2023-03-01T03:14:13;-7.50;99.90
18779;DHT22;9518;51.720;14.384;2023-03-01T03:16:43;-7.60;99.90
18779;DHT22;9518;51.720;14.384;2023-03-01T03:19:11;-7.70;99.90
18779;DHT22;9518;51.720;14.384;2023-03-01T03:21:38;-7.70;99.90
18779;DHT22;9518;51.720;14.384;2023-03-01T03:24:05;-7.70;99.90
18779;DHT22;9518;51.720;14.384;2023-03-01T03:26:33;-7.70;99.90
18779;DHT22;9518;51.720;14.384;2023-03-01T03:29:00;-7.60;99.90
18779;DHT22;9518;51.720;14.384;2023-03-01T03:31:27;-7.50;99.90
18779;DHT22;9518;51.720;14.384;2023-03-01T03:33:56;-7.40;99.90
18779;DHT22;9518;51.720;14.384;2023-03-01T03:36:24;-7.40;99.90
18779;DHT22;9518;51.720;14.384;2023-03-01T03:38:52;-7.30;99.90
18779;DHT22;9518;51.720;14.384;2023-03-01T03:41:19;-7.30;99.90
18779;DHT22;9518;51.720;14.384;2023-03-01T03:43:47;-7.40;99.90
18779;DHT22;9518;51.720;14.384;2023-03-01T03:46:14;-7.40;99.90
18779;DHT22;9518;51.720;14.384;2023-03-01T03:48:44;-7.40;99.90
18779;DHT22;9518;51.720;14.384;2023-03-01T03:51:16;-7.60;99.90
18779;DHT22;9518;51.720;14.384;2023-03-01T03:53:43;-7.60;99.90
18779;DHT22;9518;51.720;14.384;2023-03-01T03:56:11;-7.70;99.90
18779;DHT22;9518;51.720;14.384;2023-03-01T03:58:39;-7.70;99.90
18779;DHT22;9518;51.720;14.384;2023-03-01T04:01:06;-7.80;99.90
18779;DHT22;9518;51.720;14.384;2023-03-01T04:03:33;-7.80;99.90
18779;DHT22;9518;51.720;14.384;2023-03-01T04:06:03;-7.90;99.90
18779;DHT22;9518;51.720;14.384;2023-03-01T04:08:32;-7.90;99.90
18779;DHT22;9518;51.720;14.384;2023-03-01T04:11:01;-8.00;99.90
18779;DHT22;9518;51.720;14.384;2023-03-01T04:13:50;-7.90;99.90
18779;DHT22;9518;51.720;14.384;2023-03-01T04:16:18;-7.80;99.90
18779;DHT22;9518;51.720;14.384;2023-03-01T04:18:45;-7.80;99.90
18779;DHT22;9518;51.720;14.384;2023-03-01T04:21:13;-7.80;99.90
18779;DHT22;9518;51.720;14.384;2023-03-01T04:23:41;-7.80;99.90
18779;DHT22;9518;51.720;14.384;2023-03-01T04:26:09;-7.80;99.90
18779;DHT22;9518;51.720;14.384;2023-03-01T04:28:38;-7.90;99.90
18779;DHT22;9518;51.720;14.384;2023-03-01T04:31:11;-8.00;99.90
18779;DHT22;9518;51.720;14.384;2023-03-01T04:33:42;-7.90;99.90
18779;DHT22;9518;51.720;14.384;2023-03-01T04:36:10;-7.90;99.90
18779;DHT22;9518;51.720;14.384;2023-03-01T04:38:38;-8.00;99.90
18779;DHT22;9518;51.720;14.384;2023-03-01T04:41:09;-7.90;99.90
18779;DHT22;9518;51.720;14.384;2023-03-01T04:43:37;-7.80;99.90
18779;DHT22;9518;51.720;14.384;2023-03-01T04:46:10;-7.80;99.90
18779;DHT22;9518;51.720;14.384;2023-03-01T04:48:39;-7.80;99.90
18779;DHT22;9518;51.720;14.384;2023-03-01T04:51:07;-7.80;99.90
18779;DHT22;9518;51.720;14.384;2023-03-01T04:53:34;-7.70;99.90
18779;DHT22;9518;51.720;14.384;2023-03-01T04:56:02;-7.80;99.90
18779;DHT22;9518;51.720;14.384;2023-03-01T04:58:31;-7.80;99.90
18779;DHT22;9518;51.720;14.384;2023-03-01T05:00:58;-7.80;99.90
18779;DHT22;9518;51.720;14.384;2023-03-01T05:03:25;-7.70;99.90
18779;DHT22;9518;51.720;14.384;2023-03-01T05:05:53;-7.70;99.90
18779;DHT22;9518;51.720;14.384;2023-03-01T05:08:20;-7.60;99.90
18779;DHT22;9518;51.720;14.384;2023-03-01T05:10:50;-7.50;99.90
18779;DHT22;9518;51.720;14.384;2023-03-01T05:13:17;-7.50;99.90
18779;DHT22;9518;51.720;14.384;2023-03-01T05:15:54;-7.60;99.90
18779;DHT22;9518;51.720;14.384;2023-03-01T05:18:21;-7.60;99.90
18779;DHT22;9518;51.720;14.384;2023-03-01T05:20:51;-7.70;99.90
18779;DHT22;9518;51.720;14.384;2023-03-01T05:23:18;-7.80;99.90
18779;DHT22;9518;51.720;14.384;2023-03-01T05:25:45;-7.70;99.90
18779;DHT22;9518;51.720;14.384;2023-03-01T05:28:12;-7.80;99.90
18779;DHT22;9518;51.720;14.384;2023-03-01T05:30:40;-7.80;99.90
18779;DHT22;9518;51.720;14.384;2023-03-01T05:33:09;-7.70;99.90
18779;DHT22;9518;51.720;14.384;2023-03-01T05:35:39;-7.80;99.90
18779;DHT22;9518;51.720;14.384;2023-03-01T05:38:09;-7.80;99.90
18779;DHT22;9518;51.720;14.384;2023-03-01T05:40:39;-7.90;99.90
18779;DHT22;9518;51.720;14.384;2023-03-01T05:43:10;-7.90;99.90
18779;DHT22;9518;51.720;14.384;2023-03-01T05:45:38;-7.90;99.90
18779;DHT22;9518;51.720;14.384;2023-03-01T05:48:07;-7.90;99.90
18779;DHT22;9518;51.720;14.384;2023-03-01T05:50:37;-7.90;99.90
18779;DHT22;9518;51.720;14.384;2023-03-01T05:53:06;-7.90;99.90
18779;DHT22;9518;51.720;14.384;2023-03-01T05:55:34;-7.90;99.90
18779;DHT22;9518;51.720;14.384;2023-03-01T05:58:04;-7.90;99.90
18779;DHT22;9518;51.720;14.384;2023-03-01T06:00:32;-7.90;99.90
18779;DHT22;9518;51.720;14.384;2023-03-01T06:03:00;-7.90;99.90
18779;DHT22;9518;51.720;14.384;2023-03-01T06:05:27;-7.80;99.90
18779;DHT22;9518;51.720;14.384;2023-03-01T06:07:58;-7.80;99.90
18779;DHT22;9518;51.720;14.384;2023-03-01T06:10:25;-7.80;99.90
18779;DHT22;9518;51.720;14.384;2023-03-01T06:12:53;-7.70;99.90
18779;DHT22;9518;51.720;14.384;2023-03-01T06:15:20;-7.70;99.90
18779;DHT22;9518;51.720;14.384;2023-03-01T06:17:48;-7.70;99.90
18779;DHT22;9518;51.720;14.384;2023-03-01T06:20:17;-7.60;99.90
18779;DHT22;9518;51.720;14.384;2023-03-01T06:22:45;-7.60;99.90
18779;DHT22;9518;51.720;14.384;2023-03-01T06:25:16;-7.60;99.90
18779;DHT22;9518;51.720;14.384;2023-03-01T06:27:44;-7.50;99.90
18779;DHT22;9518;51.720;14.384;2023-03-01T06:30:13;-7.40;99.90
18779;DHT22;9518;51.720;14.384;2023-03-01T06:32:41;-7.30;99.90
18779;DHT22;9518;51.720;14.384;2023-03-01T06:35:09;-7.30;99.90
18779;DHT22;9518;51.720;14.384;2023-03-01T06:37:36;-7.20;99.90
18779;DHT22;9518;51.720;14.384;2023-03-01T06:40:04;-7.20;99.90
18779;DHT22;9518;51.720;14.384;2023-03-01T06:42:35;-7.10;99.90
18779;DHT22;9518;51.720;14.384;2023-03-01T06:45:03;-7.00;99.90
18779;DHT22;9518;51.720;14.384;2023-03-01T06:47:31;-7.00;99.90
18779;DHT22;9518;51.720;14.384;2023-03-01T06:50:01;-7.00;99.90
18779;DHT22;9518;51.720;14.384;2023-03-01T06:52:28;-6.90;99.90
18779;DHT22;9518;51.720;14.384;2023-03-01T06:54:56;-6.80;99.90
18779;DHT22;9518;51.720;14.384;2023-03-01T06:57:23;-6.60;99.90
18779;DHT22;9518;51.720;14.384;2023-03-01T06:59:52;-6.40;99.90
18779;DHT22;9518;51.720;14.384;2023-03-01T07:02:19;-6.30;99.90
18779;DHT22;9518;51.720;14.384;2023-03-01T07:04:46;-6.30;99.90
18779;DHT22;9518;51.720;14.384;2023-03-01T07:07:13;-6.30;99.90
18779;DHT22;9518;51.720;14.384;2023-03-01T07:09:40;-6.20;99.90
18779;DHT22;9518;51.720;14.384;2023-03-01T07:12:07;-6.10;99.90
18779;DHT22;9518;51.720;14.384;2023-03-01T07:14:34;-5.90;99.90
18779;DHT22;9518;51.720;14.384;2023-03-01T07:17:02;-5.70;99.90
18779;DHT22;9518;51.720;14.384;2023-03-01T07:19:29;-5.50;99.90
18779;DHT22;9518;51.720;14.384;2023-03-01T07:21:56;-5.30;99.90
18779;DHT22;9518;51.720;14.384;2023-03-01T07:24:23;-5.10;99.90
18779;DHT22;9518;51.720;14.384;2023-03-01T07:26:51;-4.90;99.90
18779;DHT22;9518;51.720;14.384;2023-03-01T07:29:19;-4.70;99.90
18779;DHT22;9518;51.720;14.384;2023-03-01T07:31:46;-4.40;99.90
18779;DHT22;9518;51.720;14.384;2023-03-01T07:34:14;-4.20;99.90
18779;DHT22;9518;51.720;14.384;2023-03-01T07:36:41;-4.10;99.90
18779;DHT22;9518;51.720;14.384;2023-03-01T07:39:09;-4.00;99.90
18779;DHT22;9518;51.720;14.384;2023-03-01T07:41:36;-3.80;99.90
18779;DHT22;9518;51.720;14.384;2023-03-01T07:44:03;-3.70;99.90
18779;DHT22;9518;51.720;14.384;2023-03-01T07:46:30;-3.50;99.90
18779;DHT22;9518;51.720;14.384;2023-03-01T07:48:57;-3.30;99.90
18779;DHT22;9518;51.720;14.384;2023-03-01T07:51:26;-3.10;99.90
18779;DHT22;9518;51.720;14.384;2023-03-01T07:53:53;-2.90;99.90
18779;DHT22;9518;51.720;14.384;2023-03-01T07:56:20;-2.80;99.90
18779;DHT22;9518;51.720;14.384;2023-03-01T07:58:47;-2.60;99.90
18779;DHT22;9518;51.720;14.384;2023-03-01T08:01:17;-2.40;99.90
18779;DHT22;9518;51.720;14.384;2023-03-01T08:03:44;-2.30;99.90
18779;DHT22;9518;51.720;14.384;2023-03-01T08:06:12;-2.10;99.90
18779;DHT22;9518;51.720;14.384;2023-03-01T08:08:41;-1.90;99.90
18779;DHT22;9518;51.720;14.384;2023-03-01T08:11:11;-1.80;99.90
18779;DHT22;9518;51.720;14.384;2023-03-01T08:13:39;-1.70;99.90
18779;DHT22;9518;51.720;14.384;2023-03-01T08:16:07;-1.50;99.90
18779;DHT22;9518;51.720;14.384;2023-03-01T08:18:34;-1.30;99.90
18779;DHT22;9518;51.720;14.384;2023-03-01T08:21:02;-1.20;99.90
18779;DHT22;9518;51.720;14.384;2023-03-01T08:23:29;-1.00;99.90
18779;DHT22;9518;51.720;14.384;2023-03-01T08:26:05;-0.90;99.90
18779;DHT22;9518;51.720;14.384;2023-03-01T08:28:33;-0.70;99.90
18779;DHT22;9518;51.720;14.384;2023-03-01T08:31:00;-0.50;99.90
18779;DHT22;9518;51.720;14.384;2023-03-01T08:33:27;-0.40;99.90
18779;DHT22;9518;51.720;14.384;2023-03-01T08:36:03;-0.40;99.90
18779;DHT22;9518;51.720;14.384;2023-03-01T08:38:32;-0.10;99.90
18779;DHT22;9518;51.720;14.384;2023-03-01T08:41:00;0.00;99.90
18779;DHT22;9518;51.720;14.384;2023-03-01T08:43:29;0.20;99.90
18779;DHT22;9518;51.720;14.384;2023-03-01T08:45:56;0.40;99.90
18779;DHT22;9518;51.720;14.384;2023-03-01T08:48:23;0.50;99.90
18779;DHT22;9518;51.720;14.384;2023-03-01T08:50:50;0.70;99.90
18779;DHT22;9518;51.720;14.384;2023-03-01T08:53:17;0.90;99.90
18779;DHT22;9518;51.720;14.384;2023-03-01T08:55:44;1.10;99.90
18779;DHT22;9518;51.720;14.384;2023-03-01T08:58:11;1.30;99.90
18779;DHT22;9518;51.720;14.384;2023-03-01T09:00:39;1.40;99.90
18779;DHT22;9518;51.720;14.384;2023-03-01T09:03:06;1.50;99.90
18779;DHT22;9518;51.720;14.384;2023-03-01T09:05:34;1.70;99.90
18779;DHT22;9518;51.720;14.384;2023-03-01T09:08:02;1.80;1.00
18779;DHT22;9518;51.720;14.384;2023-03-01T09:10:29;1.90;1.00
18779;DHT22;9518;51.720;14.384;2023-03-01T09:12:56;2.00;99.90
18779;DHT22;9518;51.720;14.384;2023-03-01T09:15:23;2.10;1.00
18779;DHT22;9518;51.720;14.384;2023-03-01T09:17:51;2.20;1.00
18779;DHT22;9518;51.720;14.384;2023-03-01T09:20:18;2.30;1.00
18779;DHT22;9518;51.720;14.384;2023-03-01T09:22:45;2.40;1.00
18779;DHT22;9518;51.720;14.384;2023-03-01T09:25:15;2.50;1.00
18779;DHT22;9518;51.720;14.384;2023-03-01T09:27:42;2.70;99.90
18779;DHT22;9518;51.720;14.384;2023-03-01T09:30:10;2.80;99.90
18779;DHT22;9518;51.720;14.384;2023-03-01T09:32:37;2.80;1.00
18779;DHT22;9518;51.720;14.384;2023-03-01T09:35:09;2.80;1.00
18779;DHT22;9518;51.720;14.384;2023-03-01T09:37:37;2.90;1.00
18779;DHT22;9518;51.720;14.384;2023-03-01T09:40:08;3.00;41.90
18779;DHT22;9518;51.720;14.384;2023-03-01T09:42:48;3.20;1.00
18779;DHT22;9518;51.720;14.384;2023-03-01T09:45:25;3.20;1.00
18779;DHT22;9518;51.720;14.384;2023-03-01T09:47:53;3.20;1.00
18779;DHT22;9518;51.720;14.384;2023-03-01T09:50:22;3.20;99.90
18779;DHT22;9518;51.720;14.384;2023-03-01T09:52:54;3.30;99.90
18779;DHT22;9518;51.720;14.384;2023-03-01T09:55:31;3.30;99.90
18779;DHT22;9518;51.720;14.384;2023-03-01T09:58:04;3.30;99.90
18779;DHT22;9518;51.720;14.384;2023-03-01T10:00:39;3.40;99.90
18779;DHT22;9518;51.720;14.384;2023-03-01T10:03:13;3.60;99.90
18779;DHT22;9518;51.720;14.384;2023-03-01T10:05:57;3.70;99.90
18779;DHT22;9518;51.720;14.384;2023-03-01T10:08:36;3.90;99.90
18779;DHT22;9518;51.720;14.384;2023-03-01T10:11:18;4.00;99.90
18779;DHT22;9518;51.720;14.384;2023-03-01T10:13:54;4.20;99.90
18779;DHT22;9518;51.720;14.384;2023-03-01T10:16:27;4.50;99.90
18779;DHT22;9518;51.720;14.384;2023-03-01T10:19:00;4.90;90.80
18779;DHT22;9518;51.720;14.384;2023-03-01T10:21:30;5.00;1.00
18779;DHT22;9518;51.720;14.384;2023-03-01T10:24:07;5.30;1.00
18779;DHT22;9518;51.720;14.384;2023-03-01T10:26:43;5.40;1.00
18779;DHT22;9518;51.720;14.384;2023-03-01T10:29:13;5.70;1.00
18779;DHT22;9518;51.720;14.384;2023-03-01T10:31:43;6.00;1.00
18779;DHT22;9518;51.720;14.384;2023-03-01T10:34:14;5.90;1.00
18779;DHT22;9518;51.720;14.384;2023-03-01T10:36:43;6.20;1.00
18779;DHT22;9518;51.720;14.384;2023-03-01T10:39:14;6.40;1.00
18779;DHT22;9518;51.720;14.384;2023-03-01T10:41:55;6.70;1.00
18779;DHT22;9518;51.720;14.384;2023-03-01T10:44:49;6.70;1.00
18779;DHT22;9518;51.720;14.384;2023-03-01T10:47:19;6.50;1.00
18779;DHT22;9518;51.720;14.384;2023-03-01T10:49:55;7.00;1.00
18779;DHT22;9518;51.720;14.384;2023-03-01T10:52:30;6.90;1.00
18779;DHT22;9518;51.720;14.384;2023-03-01T10:55:00;7.10;1.00
18779;DHT22;9518;51.720;14.384;2023-03-01T10:57:33;7.10;1.00
18779;DHT22;9518;51.720;14.384;2023-03-01T11:00:18;7.00;1.00
18779;DHT22;9518;51.720;14.384;2023-03-01T11:02:48;6.90;1.00
18779;DHT22;9518;51.720;14.384;2023-03-01T11:05:20;7.00;1.00
18779;DHT22;9518;51.720;14.384;2023-03-01T11:07:52;7.10;1.00
18779;DHT22;9518;51.720;14.384;2023-03-01T11:10:23;7.50;1.00
18779;DHT22;9518;51.720;14.384;2023-03-01T11:12:51;7.70;1.00
18779;DHT22;9518;51.720;14.384;2023-03-01T11:15:24;8.00;1.00
18779;DHT22;9518;51.720;14.384;2023-03-01T11:17:52;8.20;1.00
18779;DHT22;9518;51.720;14.384;2023-03-01T11:20:27;8.20;1.00
18779;DHT22;9518;51.720;14.384;2023-03-01T11:23:01;8.20;1.00
18779;DHT22;9518;51.720;14.384;2023-03-01T11:25:33;8.10;1.00
18779;DHT22;9518;51.720;14.384;2023-03-01T11:28:04;8.50;1.00
18779;DHT22;9518;51.720;14.384;2023-03-01T11:30:35;8.80;1.00
18779;DHT22;9518;51.720;14.384;2023-03-01T11:33:13;9.10;1.00
18779;DHT22;9518;51.720;14.384;2023-03-01T11:35:45;8.90;1.00
18779;DHT22;9518;51.720;14.384;2023-03-01T11:38:20;9.30;1.00
18779;DHT22;9518;51.720;14.384;2023-03-01T11:40:52;9.40;1.00
18779;DHT22;9518;51.720;14.384;2023-03-01T11:43:29;9.70;1.00
18779;DHT22;9518;51.720;14.384;2023-03-01T11:49:02;9.50;1.00
18779;DHT22;9518;51.720;14.384;2023-03-01T11:51:41;9.40;1.00
18779;DHT22;9518;51.720;14.384;2023-03-01T11:54:30;9.30;1.00
18779;DHT22;9518;51.720;14.384;2023-03-01T11:57:03;9.40;1.00
18779;DHT22;9518;51.720;14.384;2023-03-01T12:00:11;9.40;1.00
18779;DHT22;9518;51.720;14.384;2023-03-01T12:03:01;9.90;1.00
18779;DHT22;9518;51.720;14.384;2023-03-01T12:05:52;10.20;1.00
18779;DHT22;9518;51.720;14.384;2023-03-01T12:08:33;10.10;1.00
18779;DHT22;9518;51.720;14.384;2023-03-01T12:11:14;9.40;1.00
18779;DHT22;9518;51.720;14.384;2023-03-01T12:14:30;9.90;1.00
18779;DHT22;9518;51.720;14.384;2023-03-01T12:17:13;10.40;1.00
18779;DHT22;9518;51.720;14.384;2023-03-01T12:20:12;10.20;1.00
18779;DHT22;9518;51.720;14.384;2023-03-01T12:22:54;10.10;1.00
18779;DHT22;9518;51.720;14.384;2023-03-01T12:25:28;9.70;1.00
18779;DHT22;9518;51.720;14.384;2023-03-01T12:31:35;10.50;1.00
18779;DHT22;9518;51.720;14.384;2023-03-01T12:34:25;11.20;1.00
18779;DHT22;9518;51.720;14.384;2023-03-01T12:37:10;10.80;1.00
18779;DHT22;9518;51.720;14.384;2023-03-01T12:39:46;11.10;1.00
18779;DHT22;9518;51.720;14.384;2023-03-01T12:42:24;11.60;1.00
18779;DHT22;9518;51.720;14.384;2023-03-01T12:45:05;11.70;1.00
18779;DHT22;9518;51.720;14.384;2023-03-01T12:47:58;12.20;1.00
18779;DHT22;9518;51.720;14.384;2023-03-01T12:50:38;11.70;1.00
18779;DHT22;9518;51.720;14.384;2023-03-01T12:53:17;11.20;1.00
18779;DHT22;9518;51.720;14.384;2023-03-01T12:55:47;11.50;1.00
18779;DHT22;9518;51.720;14.384;2023-03-01T12:58:23;11.60;1.00
18779;DHT22;9518;51.720;14.384;2023-03-01T13:01:05;12.00;1.00
18779;DHT22;9518;51.720;14.384;2023-03-01T13:03:56;11.90;1.00
18779;DHT22;9518;51.720;14.384;2023-03-01T13:06:33;12.30;1.00
18779;DHT22;9518;51.720;14.384;2023-03-01T13:09:10;12.50;1.00
18779;DHT22;9518;51.720;14.384;2023-03-01T13:11:41;12.80;1.00
18779;DHT22;9518;51.720;14.384;2023-03-01T13:14:42;13.30;1.00
18779;DHT22;9518;51.720;14.384;2023-03-01T13:17:31;13.90;1.00
18779;DHT22;9518;51.720;14.384;2023-03-01T13:19:59;13.80;1.00
18779;DHT22;9518;51.720;14.384;2023-03-01T13:22:29;14.10;1.00
18779;DHT22;9518;51.720;14.384;2023-03-01T13:25:16;14.20;1.00
18779;DHT22;9518;51.720;14.384;2023-03-01T13:27:44;14.50;1.00
18779;DHT22;9518;51.720;14.384;2023-03-01T13:30:39;14.20;1.00
18779;DHT22;9518;51.720;14.384;2023-03-01T13:36:50;14.30;1.00
18779;DHT22;9518;51.720;14.384;2023-03-01T13:39:29;15.00;1.00
18779;DHT22;9518;51.720;14.384;2023-03-01T13:41:59;14.90;1.00
18779;DHT22;9518;51.720;14.384;2023-03-01T13:44:30;14.30;1.00
18779;DHT22;9518;51.720;14.384;2023-03-01T13:47:02;14.50;1.00
18779;DHT22;9518;51.720;14.384;2023-03-01T13:49:40;14.70;1.00
18779;DHT22;9518;51.720;14.384;2023-03-01T13:52:37;15.10;1.00
18779;DHT22;9518;51.720;14.384;2023-03-01T13:55:16;14.60;1.00
18779;DHT22;9518;51.720;14.384;2023-03-01T13:57:47;14.80;1.00
18779;DHT22;9518;51.720;14.384;2023-03-01T14:00:31;15.10;1.00
18779;DHT22;9518;51.720;14.384;2023-03-01T14:03:13;15.90;1.00
18779;DHT22;9518;51.720;14.384;2023-03-01T14:05:44;15.40;1.00
18779;DHT22;9518;51.720;14.384;2023-03-01T14:08:27;15.70;1.00
18779;DHT22;9518;51.720;14.384;2023-03-01T14:11:13;15.80;1.00
18779;DHT22;9518;51.720;14.384;2023-03-01T14:14:05;15.70;1.00
18779;DHT22;9518;51.720;14.384;2023-03-01T14:16:41;15.50;1.00
18779;DHT22;9518;51.720;14.384;2023-03-01T14:19:17;15.90;1.00
18779;DHT22;9518;51.720;14.384;2023-03-01T14:21:46;15.80;1.00
18779;DHT22;9518;51.720;14.384;2023-03-01T14:24:22;16.20;1.00
18779;DHT22;9518;51.720;14.384;2023-03-01T14:26:50;16.60;1.00
18779;DHT22;9518;51.720;14.384;2023-03-01T14:29:25;17.10;1.00
18779;DHT22;9518;51.720;14.384;2023-03-01T14:31:52;17.50;1.00
18779;DHT22;9518;51.720;14.384;2023-03-01T14:34:21;17.50;1.00
18779;DHT22;9518;51.720;14.384;2023-03-01T14:36:49;17.80;1.00
18779;DHT22;9518;51.720;14.384;2023-03-01T14:39:20;17.30;1.00
18779;DHT22;9518;51.720;14.384;2023-03-01T14:41:51;17.30;1.00
18779;DHT22;9518;51.720;14.384;2023-03-01T14:44:22;17.70;1.00
18779;DHT22;9518;51.720;14.384;2023-03-01T14:46:52;17.80;1.00
18779;DHT22;9518;51.720;14.384;2023-03-01T14:49:22;18.10;1.00
18779;DHT22;9518;51.720;14.384;2023-03-01T14:51:52;17.80;1.00
18779;DHT22;9518;51.720;14.384;2023-03-01T14:54:25;17.90;1.00
18779;DHT22;9518;51.720;14.384;2023-03-01T14:56:57;17.30;1.00
18779;DHT22;9518;51.720;14.384;2023-03-01T14:59:25;17.50;1.00
18779;DHT22;9518;51.720;14.384;2023-03-01T15:01:54;17.50;1.00
18779;DHT22;9518;51.720;14.384;2023-03-01T15:04:23;17.30;1.00
18779;DHT22;9518;51.720;14.384;2023-03-01T15:06:52;16.90;1.00
18779;DHT22;9518;51.720;14.384;2023-03-01T15:09:22;15.80;1.00
18779;DHT22;9518;51.720;14.384;2023-03-01T15:11:50;14.00;1.00
18779;DHT22;9518;51.720;14.384;2023-03-01T15:14:28;12.50;1.00
18779;DHT22;9518;51.720;14.384;2023-03-01T15:16:56;11.20;1.00
18779;DHT22;9518;51.720;14.384;2023-03-01T15:19:30;10.20;1.00
18779;DHT22;9518;51.720;14.384;2023-03-01T15:21:57;9.70;1.00
18779;DHT22;9518;51.720;14.384;2023-03-01T15:24:26;9.10;1.00
18779;DHT22;9518;51.720;14.384;2023-03-01T15:26:56;8.50;1.00
18779;DHT22;9518;51.720;14.384;2023-03-01T15:29:29;8.00;1.00
18779;DHT22;9518;51.720;14.384;2023-03-01T15:32:00;7.70;1.00
18779;DHT22;9518;51.720;14.384;2023-03-01T15:34:33;7.40;1.00
18779;DHT22;9518;51.720;14.384;2023-03-01T15:37:03;7.10;1.00
18779;DHT22;9518;51.720;14.384;2023-03-01T15:39:38;6.70;1.00
18779;DHT22;9518;51.720;14.384;2023-03-01T15:42:09;6.50;1.00
18779;DHT22;9518;51.720;14.384;2023-03-01T15:44:38;6.30;1.00
18779;DHT22;9518;51.720;14.384;2023-03-01T15:47:23;6.10;1.00
18779;DHT22;9518;51.720;14.384;2023-03-01T15:49:52;5.90;1.00
18779;DHT22;9518;51.720;14.384;2023-03-01T15:52:23;5.60;1.00
18779;DHT22;9518;51.720;14.384;2023-03-01T15:54:57;5.40;1.00
18779;DHT22;9518;51.720;14.384;2023-03-01T15:57:25;5.20;1.00
18779;DHT22;9518;51.720;14.384;2023-03-01T15:59:52;5.10;1.00
18779;DHT22;9518;51.720;14.384;2023-03-01T16:02:19;5.00;1.00
18779;DHT22;9518;51.720;14.384;2023-03-01T16:04:47;4.90;1.00
18779;DHT22;9518;51.720;14.384;2023-03-01T16:07:15;4.70;1.00
18779;DHT22;9518;51.720;14.384;2023-03-01T16:09:43;4.40;1.00
18779;DHT22;9518;51.720;14.384;2023-03-01T16:12:14;4.20;1.00
18779;DHT22;9518;51.720;14.384;2023-03-01T16:14:43;4.00;1.00
18779;DHT22;9518;51.720;14.384;2023-03-01T16:17:10;3.90;1.00
18779;DHT22;9518;51.720;14.384;2023-03-01T16:19:37;3.60;1.00